createdAt,value
2024-02-15T00:00:44.508Z,8.46
2024-02-15T00:03:14.534Z,8.54
2024-02-15T00:05:41.372Z,8.56
2024-02-15T00:08:07.865Z,8.62
2024-02-15T00:10:35.569Z,8.63
2024-02-15T00:13:02.140Z,8.56
2024-02-15T00:15:28.659Z,8.63
2024-02-15T00:17:55.303Z,8.69
2024-02-15T00:20:21.946Z,8.69
2024-02-15T00:22:49.217Z,8.53
2024-02-15T00:25:15.797Z,8.45
2024-02-15T00:27:42.393Z,8.52
2024-02-15T00:30:10.137Z,8.47
2024-02-15T00:32:38.087Z,8.48
2024-02-15T00:35:10.869Z,8.35
2024-02-15T00:37:38.271Z,8.27
2024-02-15T00:40:05.338Z,8.21
2024-02-15T00:42:34.691Z,8.35
2024-02-15T00:45:01.333Z,8.45
2024-02-15T00:47:29.798Z,8.52
2024-02-15T00:49:56.575Z,8.50
2024-02-15T00:52:24.676Z,8.53
2024-02-15T00:54:51.210Z,8.42
2024-02-15T00:57:17.735Z,8.49
2024-02-15T00:59:45.278Z,8.54
2024-02-15T01:02:11.978Z,8.55
2024-02-15T01:04:38.509Z,8.55
2024-02-15T01:07:05.165Z,8.51
2024-02-15T01:09:31.751Z,8.55
2024-02-15T01:11:58.348Z,8.43
2024-02-15T01:14:24.968Z,8.58
2024-02-15T01:16:51.481Z,8.60
2024-02-15T01:19:18.053Z,8.46
2024-02-15T01:21:45.205Z,8.60
2024-02-15T01:24:11.799Z,8.64
2024-02-15T01:26:38.432Z,8.62
2024-02-15T01:29:05.047Z,8.67
2024-02-15T01:31:31.676Z,8.69
2024-02-15T01:33:58.727Z,8.76
2024-02-15T01:36:25.947Z,8.76
2024-02-15T01:38:52.538Z,8.83
2024-02-15T01:41:19.137Z,8.79
2024-02-15T01:43:49.200Z,8.72
2024-02-15T01:46:16.750Z,8.80
2024-02-15T01:48:44.580Z,8.76
2024-02-15T01:51:14.145Z,8.75
2024-02-15T01:53:43.136Z,8.80
2024-02-15T01:56:13.088Z,8.76
2024-02-15T01:58:42.222Z,8.68
2024-02-15T02:01:08.813Z,8.56
2024-02-15T02:03:36.395Z,8.67
2024-02-15T02:06:04.215Z,8.75
2024-02-15T02:08:30.908Z,8.71
2024-02-15T02:10:58.210Z,8.65
2024-02-15T02:13:24.944Z,8.73
2024-02-15T02:15:54.214Z,8.74
2024-02-15T02:18:21.139Z,8.82
2024-02-15T02:20:47.835Z,8.75
2024-02-15T02:23:21.715Z,8.78
2024-02-15T02:25:50.352Z,8.60
2024-02-15T02:28:17.941Z,8.36
2024-02-15T02:30:46.867Z,8.32
2024-02-15T02:33:20.882Z,8.39
2024-02-15T02:35:49.516Z,8.30
2024-02-15T02:38:16.608Z,8.20
2024-02-15T02:40:43.701Z,8.23
2024-02-15T02:43:10.978Z,8.15
2024-02-15T02:45:37.771Z,8.15
2024-02-15T02:48:04.884Z,8.08
2024-02-15T02:50:31.557Z,8.07
2024-02-15T02:52:58.123Z,8.00
2024-02-15T02:55:24.700Z,7.85
2024-02-15T02:57:51.279Z,7.88
2024-02-15T03:00:18.687Z,7.82
2024-02-15T03:02:47.435Z,7.88
2024-02-15T03:05:17.261Z,7.80
2024-02-15T03:07:43.925Z,7.70
2024-02-15T03:10:11.529Z,7.72
2024-02-15T03:12:41.115Z,7.66
2024-02-15T03:15:12.446Z,7.39
2024-02-15T03:17:43.135Z,7.68
2024-02-15T03:20:21.709Z,7.73
2024-02-15T03:22:55.904Z,7.75
2024-02-15T03:25:25.282Z,7.71
2024-02-15T03:28:04.521Z,7.71
2024-02-15T03:30:32.788Z,7.72
2024-02-15T03:32:59.843Z,7.68
2024-02-15T03:35:30.086Z,7.71
2024-02-15T03:37:57.585Z,7.79
2024-02-15T03:40:27.635Z,7.76
2024-02-15T03:42:55.113Z,7.77
2024-02-15T03:45:22.210Z,7.58
2024-02-15T03:47:51.132Z,7.64
2024-02-15T03:50:20.018Z,7.68
2024-02-15T03:52:47.201Z,7.75
2024-02-15T03:55:14.227Z,7.85
2024-02-15T03:57:48.210Z,7.76
2024-02-15T04:00:22.613Z,7.80
2024-02-15T04:02:50.395Z,7.69
2024-02-15T04:05:19.364Z,8.04
2024-02-15T04:07:46.194Z,8.07
2024-02-15T04:10:13.612Z,8.19
2024-02-15T04:12:43.205Z,8.20
2024-02-15T04:15:14.189Z,8.22
2024-02-15T04:17:42.471Z,8.17
2024-02-15T04:20:10.494Z,8.15
2024-02-15T04:22:39.680Z,8.20
2024-02-15T04:25:07.373Z,8.18
2024-02-15T04:27:34.150Z,8.24
2024-02-15T04:30:00.884Z,8.28
2024-02-15T04:32:27.397Z,8.33
2024-02-15T04:34:53.974Z,8.34
2024-02-15T04:37:21.710Z,8.24
2024-02-15T04:39:48.906Z,8.35
2024-02-15T04:42:16.887Z,8.36
2024-02-15T04:44:43.497Z,8.31
2024-02-15T04:47:10.037Z,8.28
2024-02-15T04:49:39.304Z,8.25
2024-02-15T04:52:07.776Z,8.29
2024-02-15T04:54:34.553Z,8.29
2024-02-15T04:57:02.302Z,8.21
2024-02-15T04:59:30.362Z,8.28
2024-02-15T05:02:00.147Z,8.29
2024-02-15T05:04:26.922Z,8.38
2024-02-15T05:06:54.547Z,8.42
2024-02-15T05:09:21.271Z,8.34
2024-02-15T05:11:48.481Z,8.30
2024-02-15T05:14:20.388Z,8.27
2024-02-15T05:16:49.041Z,8.32
2024-02-15T05:19:18.841Z,8.18
2024-02-15T05:21:47.102Z,8.36
2024-02-15T05:24:17.807Z,8.42
2024-02-15T05:26:49.928Z,8.39
2024-02-15T05:29:16.790Z,8.48
2024-02-15T05:31:43.419Z,8.54
2024-02-15T05:34:13.486Z,8.59
2024-02-15T05:36:40.745Z,8.58
2024-02-15T05:39:08.613Z,8.46
2024-02-15T05:41:35.706Z,8.57
2024-02-15T05:44:05.771Z,8.62
2024-02-15T05:46:32.457Z,8.58
2024-02-15T05:49:00.430Z,8.75
2024-02-15T05:51:27.155Z,8.75
2024-02-15T05:53:59.484Z,8.82
2024-02-15T05:56:27.105Z,8.86
2024-02-15T05:58:53.849Z,8.86
2024-02-15T06:01:20.410Z,8.89
2024-02-15T06:03:49.469Z,8.91
2024-02-15T06:06:16.275Z,8.87
2024-02-15T06:08:43.039Z,8.83
2024-02-15T06:11:11.677Z,8.96
2024-02-15T06:13:38.369Z,8.90
2024-02-15T06:16:10.312Z,9.00
2024-02-15T06:18:37.199Z,9.04
2024-02-15T06:21:04.562Z,8.99
2024-02-15T06:23:32.317Z,9.01
2024-02-15T06:25:59.468Z,9.07
2024-02-15T06:28:45.024Z,9.13
2024-02-15T06:31:31.612Z,9.17
2024-02-15T06:34:16.948Z,9.24
2024-02-15T06:48:35.575Z,9.42
2024-02-15T06:51:02.436Z,9.42
2024-02-15T06:53:29.086Z,9.39
2024-02-15T06:55:55.671Z,9.58
2024-02-15T06:58:22.310Z,9.56
2024-02-15T07:00:51.398Z,9.53
2024-02-15T07:03:18.192Z,9.57
2024-02-15T07:05:45.362Z,9.65
2024-02-15T07:08:13.899Z,9.66
2024-02-15T07:10:40.956Z,9.63
2024-02-15T07:13:07.769Z,9.75
2024-02-15T07:15:39.980Z,9.75
2024-02-15T07:18:07.722Z,9.67
2024-02-15T07:20:34.953Z,9.79
2024-02-15T07:23:28.778Z,9.72
2024-02-15T07:38:37.694Z,9.79
2024-02-15T07:41:04.604Z,9.85
2024-02-15T07:43:31.234Z,9.90
2024-02-15T07:45:57.834Z,9.94
2024-02-15T07:48:25.104Z,10.03
2024-02-15T07:50:51.715Z,10.06
2024-02-15T07:53:18.232Z,10.12
2024-02-15T07:55:45.244Z,10.14
2024-02-15T07:58:12.143Z,10.19
2024-02-15T08:00:39.504Z,10.25
2024-02-15T08:03:06.270Z,10.28
2024-02-15T08:05:32.934Z,10.25
2024-02-15T08:47:16.047Z,10.82
2024-02-15T08:49:42.802Z,10.90
2024-02-15T08:52:09.569Z,10.79
2024-02-15T08:54:39.673Z,11.00
2024-02-15T08:57:07.618Z,11.05
2024-02-15T08:59:34.373Z,11.12
2024-02-15T09:02:01.655Z,11.17
2024-02-15T09:04:28.741Z,10.97
2024-02-15T09:09:45.832Z,11.28
2024-02-15T09:26:58.138Z,11.48
2024-02-15T09:29:25.595Z,11.57
2024-02-15T09:31:53.969Z,11.63
2024-02-15T09:34:20.753Z,11.57
2024-02-15T09:36:47.338Z,11.72
2024-02-15T09:39:15.273Z,11.79
2024-02-15T09:41:47.605Z,11.83
2024-02-15T09:44:15.967Z,11.88
2024-02-15T09:46:48.029Z,11.91
2024-02-15T09:49:15.700Z,12.08
2024-02-15T09:51:43.779Z,12.15
2024-02-15T09:54:11.967Z,12.15
2024-02-15T09:56:42.787Z,12.29
2024-02-15T09:59:09.465Z,12.40
2024-02-15T10:01:38.250Z,12.44
2024-02-15T10:04:08.034Z,12.61
2024-02-15T10:06:34.938Z,12.76
2024-02-15T10:09:28.833Z,12.92
2024-02-15T10:12:01.676Z,13.06
2024-02-15T10:14:31.949Z,13.19
2024-02-15T10:17:07.260Z,13.28
2024-02-15T10:19:36.203Z,13.31
2024-02-15T10:22:10.228Z,13.44
2024-02-15T10:24:38.156Z,13.55
2024-02-15T10:27:07.121Z,13.67
2024-02-15T10:29:35.298Z,13.72
2024-02-15T10:32:03.478Z,13.86
2024-02-15T10:34:31.880Z,13.90
2024-02-15T10:37:15.365Z,14.05
2024-02-15T10:39:42.172Z,14.09
2024-02-15T10:42:12.351Z,14.16
2024-02-15T10:44:42.214Z,14.14
2024-02-15T10:47:10.257Z,14.21
2024-02-15T10:49:37.464Z,14.24
2024-02-15T10:52:05.736Z,14.24
2024-02-15T10:54:38.307Z,14.31
2024-02-15T10:57:06.737Z,14.36
2024-02-15T10:59:39.580Z,14.37
2024-02-15T11:02:24.997Z,14.37
2024-02-15T11:04:57.759Z,14.39
2024-02-15T11:07:30.864Z,14.42
2024-02-15T11:10:00.302Z,14.37
2024-02-15T11:12:27.864Z,14.42
2024-02-15T11:14:55.466Z,14.39
2024-02-15T11:17:41.042Z,14.49
2024-02-15T11:20:10.965Z,14.38
2024-02-15T11:22:38.348Z,14.52
2024-02-15T11:25:10.054Z,14.39
2024-02-15T11:27:48.916Z,14.47
2024-02-15T11:30:33.142Z,14.51
2024-02-15T11:33:00.860Z,14.49
2024-02-15T11:35:30.826Z,14.55
2024-02-15T11:38:05.876Z,14.56
2024-02-15T11:41:01.679Z,14.59
2024-02-15T11:43:46.122Z,14.56
2024-02-15T11:46:17.550Z,14.51
2024-02-15T11:48:44.600Z,14.52
2024-02-15T11:51:12.925Z,14.50
2024-02-15T11:53:40.856Z,14.52
2024-02-15T11:56:10.198Z,14.50
2024-02-15T11:58:53.749Z,14.58
2024-02-15T12:01:39.132Z,14.61
2024-02-15T12:04:24.455Z,14.64
2024-02-15T12:07:16.895Z,14.65
2024-02-15T12:10:05.260Z,14.65
2024-02-15T12:12:51.967Z,14.76
2024-02-15T12:15:37.273Z,14.79
2024-02-15T12:18:37.797Z,14.87
2024-02-15T12:21:06.410Z,15.01
2024-02-15T12:23:34.937Z,15.24
2024-02-15T12:26:04.780Z,15.45
2024-02-15T12:28:32.409Z,15.62
2024-02-15T12:31:01.506Z,15.80
2024-02-15T12:33:28.777Z,15.92
2024-02-15T12:36:08.946Z,16.15
2024-02-15T12:38:38.603Z,16.32
2024-02-15T12:41:21.381Z,16.32
2024-02-15T12:43:53.386Z,16.24
2024-02-15T12:46:20.841Z,16.11
2024-02-15T12:48:47.769Z,16.16
2024-02-15T12:51:17.827Z,16.06
2024-02-15T12:53:44.862Z,16.01
2024-02-15T12:56:11.638Z,15.85
2024-02-15T12:58:40.275Z,15.73
2024-02-15T13:01:07.323Z,15.70
2024-02-15T13:03:34.428Z,15.57
2024-02-15T13:06:01.255Z,15.49
2024-02-15T13:08:27.848Z,15.46
2024-02-15T13:10:54.460Z,15.32
2024-02-15T13:13:22.401Z,15.38
2024-02-15T13:15:52.922Z,15.32
2024-02-15T13:18:20.123Z,15.27
2024-02-15T13:20:50.871Z,15.25
2024-02-15T13:23:23.394Z,15.12
2024-02-15T13:25:51.347Z,15.01
2024-02-15T13:28:18.181Z,14.95
2024-02-15T13:30:46.711Z,14.95
2024-02-15T13:33:15.972Z,14.94
2024-02-15T13:35:43.198Z,15.00
2024-02-15T13:38:16.459Z,15.01
2024-02-15T13:40:45.498Z,15.01
2024-02-15T13:43:12.348Z,14.91
2024-02-15T13:45:42.740Z,14.95
2024-02-15T13:48:11.030Z,14.95
2024-02-15T13:50:38.646Z,14.91
2024-02-15T13:53:06.007Z,14.89
2024-02-15T13:55:32.590Z,14.83
2024-02-15T13:57:59.557Z,14.92
2024-02-15T14:00:38.493Z,14.86
2024-02-15T14:03:07.874Z,14.88
2024-02-15T14:05:34.974Z,14.88
2024-02-15T14:08:15.084Z,14.88
2024-02-15T14:10:42.018Z,14.94
2024-02-15T14:13:12.702Z,14.91
2024-02-15T14:15:40.889Z,14.90
2024-02-15T14:18:14.841Z,14.96
2024-02-15T14:20:45.071Z,14.87
2024-02-15T14:23:15.550Z,14.91
2024-02-15T14:25:43.841Z,14.98
2024-02-15T14:28:10.559Z,14.96
2024-02-15T14:30:56.259Z,14.91
2024-02-15T14:33:23.998Z,14.93
2024-02-15T14:35:54.839Z,14.90
2024-02-15T14:38:22.081Z,14.87
2024-02-15T14:40:54.527Z,14.87
2024-02-15T14:43:22.903Z,14.77
2024-02-15T14:45:50.017Z,14.76
2024-02-15T14:48:19.818Z,14.73
2024-02-15T14:50:47.584Z,14.69
2024-02-15T14:53:16.934Z,14.46
2024-02-15T14:55:47.378Z,14.36
2024-02-15T14:58:14.893Z,14.35
2024-02-15T15:00:46.129Z,14.33
2024-02-15T15:03:14.733Z,14.27
2024-02-15T15:06:00.994Z,14.06
2024-02-15T15:08:46.214Z,14.06
2024-02-15T15:11:31.250Z,14.09
2024-02-15T15:13:57.928Z,13.88
2024-02-15T15:16:26.490Z,13.78
2024-02-15T15:18:56.289Z,13.79
2024-02-15T15:21:24.564Z,13.83
2024-02-15T15:23:51.584Z,13.89
2024-02-15T15:26:22.476Z,13.83
2024-02-15T15:28:49.755Z,13.85
2024-02-15T15:31:16.836Z,13.86
2024-02-15T15:33:44.380Z,13.87
2024-02-15T15:36:12.298Z,13.87
2024-02-15T15:38:39.269Z,13.86
2024-02-15T15:41:08.372Z,13.81
2024-02-15T15:43:34.950Z,13.83
2024-02-15T15:46:01.486Z,13.88
2024-02-15T15:48:28.171Z,13.89
2024-02-15T15:50:55.132Z,13.88
2024-02-15T15:53:22.159Z,13.86
2024-02-15T15:55:48.872Z,13.80
2024-02-15T15:58:16.234Z,13.84
2024-02-15T16:00:42.837Z,13.82
2024-02-15T16:03:10.095Z,13.74
2024-02-15T16:05:37.428Z,13.74
2024-02-15T16:08:04.470Z,13.72
2024-02-15T16:10:31.305Z,13.71
2024-02-15T16:12:58.618Z,13.69
2024-02-15T16:15:25.527Z,13.67
2024-02-15T16:17:52.424Z,13.54
2024-02-15T16:20:19.351Z,13.60
2024-02-15T16:22:46.644Z,13.58
2024-02-15T16:25:13.433Z,13.53
2024-02-15T16:27:41.507Z,13.46
2024-02-15T16:30:10.522Z,13.40
2024-02-15T16:32:41.217Z,13.28
2024-02-15T16:35:15.966Z,13.17
2024-02-15T16:37:43.947Z,13.20
2024-02-15T16:40:13.886Z,13.15
2024-02-15T16:42:46.020Z,13.09
2024-02-15T16:45:16.119Z,13.05
2024-02-15T16:47:50.980Z,13.01
2024-02-15T16:50:18.236Z,13.00
2024-02-15T16:52:44.987Z,12.94
2024-02-15T16:55:11.756Z,12.85
2024-02-15T16:57:42.205Z,12.71
2024-02-15T17:00:09.912Z,12.62
2024-02-15T17:02:39.983Z,12.57
2024-02-15T17:05:08.844Z,12.49
2024-02-15T17:07:36.069Z,12.32
2024-02-15T17:10:02.720Z,12.25
2024-02-15T17:12:29.855Z,12.27
2024-02-15T17:14:56.796Z,12.24
2024-02-15T17:17:23.703Z,12.18
2024-02-15T17:19:52.547Z,12.17
2024-02-15T17:22:19.784Z,12.17
2024-02-15T17:24:46.632Z,12.09
2024-02-15T17:27:13.417Z,12.06
2024-02-15T17:29:41.222Z,12.06
2024-02-15T17:32:08.117Z,12.04
2024-02-15T17:34:35.062Z,11.99
2024-02-15T17:37:01.979Z,11.98
2024-02-15T17:39:28.611Z,12.04
2024-02-15T17:41:55.252Z,11.98
2024-02-15T17:44:21.949Z,12.06
2024-02-15T17:46:48.574Z,12.09
2024-02-15T17:49:15.340Z,12.08
2024-02-15T17:51:44.625Z,12.10
2024-02-15T17:54:12.121Z,12.07
2024-02-15T17:56:41.494Z,12.08
2024-02-15T17:59:12.370Z,12.02
2024-02-15T18:01:40.550Z,12.05
2024-02-15T18:04:07.686Z,12.11
2024-02-15T18:06:34.732Z,12.04
2024-02-15T18:09:01.774Z,12.01
2024-02-15T18:11:28.713Z,12.07
2024-02-15T18:13:56.445Z,12.00
2024-02-15T18:16:23.089Z,12.00
2024-02-15T18:18:50.573Z,11.97
2024-02-15T18:21:17.857Z,11.82
2024-02-15T18:23:46.217Z,11.92
2024-02-15T18:26:13.195Z,11.93
2024-02-15T18:28:40.093Z,11.92
2024-02-15T18:31:09.931Z,11.95
2024-02-15T18:33:40.941Z,11.92
2024-02-15T18:36:10.017Z,11.91
2024-02-15T18:38:37.508Z,11.87
2024-02-15T18:41:07.088Z,11.84
2024-02-15T18:43:35.555Z,11.83
2024-02-15T18:46:03.014Z,11.86
2024-02-15T18:48:33.020Z,11.87
2024-02-15T18:50:59.938Z,11.87
2024-02-15T18:53:33.701Z,11.76
2024-02-15T18:56:00.319Z,11.78
2024-02-15T18:58:28.987Z,11.72
2024-02-15T19:00:58.978Z,11.67
2024-02-15T19:03:26.499Z,11.63
2024-02-15T19:05:53.516Z,11.63
2024-02-15T19:08:20.638Z,11.56
2024-02-15T19:10:47.720Z,11.50
2024-02-15T19:13:15.004Z,11.48
2024-02-15T19:15:41.809Z,11.49
2024-02-15T19:18:09.916Z,11.45
2024-02-15T19:20:36.838Z,11.41
2024-02-15T19:23:07.105Z,11.35
2024-02-15T19:25:45.677Z,11.32
2024-02-15T19:28:13.777Z,11.13
2024-02-15T19:30:43.160Z,11.17
2024-02-15T19:33:15.381Z,11.02
2024-02-15T19:35:47.331Z,11.00
2024-02-15T19:38:15.100Z,10.93
2024-02-15T19:40:43.393Z,10.90
2024-02-15T19:43:10.120Z,10.91
2024-02-15T19:45:42.686Z,10.90
2024-02-15T19:48:13.976Z,10.87
2024-02-15T19:50:40.863Z,10.87
2024-02-15T19:53:09.098Z,10.86
2024-02-15T19:55:35.764Z,10.75
2024-02-15T19:58:02.402Z,10.65
2024-02-15T20:00:30.589Z,10.77
2024-02-15T20:02:57.605Z,10.74
2024-02-15T20:05:28.011Z,10.74
2024-02-15T20:07:55.093Z,10.73
2024-02-15T20:10:21.701Z,10.71
2024-02-15T20:12:48.241Z,10.65
2024-02-15T20:15:14.844Z,10.67
2024-02-15T20:17:41.521Z,10.65
2024-02-15T20:20:11.318Z,10.68
2024-02-15T20:22:40.432Z,10.72
2024-02-15T20:25:11.132Z,10.66
2024-02-15T20:27:38.566Z,10.68
2024-02-15T20:30:06.657Z,10.64
2024-02-15T20:32:33.351Z,10.67
2024-02-15T20:35:00.339Z,10.75
2024-02-15T20:37:27.112Z,10.69
2024-02-15T20:39:54.783Z,10.73
2024-02-15T20:42:21.510Z,10.80
2024-02-15T20:44:48.149Z,10.80
2024-02-15T20:47:15.424Z,10.77
2024-02-15T20:49:42.119Z,10.79
2024-02-15T20:52:09.439Z,10.82
2024-02-15T20:54:36.126Z,10.87
2024-02-15T20:57:02.800Z,10.85
2024-02-15T20:59:29.498Z,10.92
2024-02-15T21:01:56.145Z,10.93
2024-02-15T21:04:23.046Z,10.93
2024-02-15T21:06:50.531Z,10.93
2024-02-15T21:09:17.598Z,10.95
2024-02-15T21:11:44.994Z,10.94
2024-02-15T21:14:14.440Z,10.98
2024-02-15T21:16:41.278Z,10.99
2024-02-15T21:19:10.788Z,10.99
2024-02-15T21:21:38.082Z,11.01
2024-02-15T21:24:06.353Z,11.04
2024-02-15T21:26:33.772Z,11.06
2024-02-15T21:29:00.577Z,11.08
2024-02-15T21:31:27.123Z,11.05
2024-02-15T21:33:55.435Z,11.04
2024-02-15T21:36:22.738Z,10.99
2024-02-15T21:38:51.576Z,11.04
2024-02-15T21:41:22.521Z,10.97
2024-02-15T21:43:52.144Z,11.01
2024-02-15T21:46:21.122Z,11.04
2024-02-15T21:48:49.149Z,10.98
2024-02-15T21:51:15.822Z,11.03
2024-02-15T21:53:42.319Z,11.05
2024-02-15T21:56:08.812Z,11.04
2024-02-15T21:58:35.322Z,11.02
2024-02-15T22:01:01.935Z,11.04
2024-02-15T22:03:28.726Z,11.10
2024-02-15T22:05:55.413Z,11.05
2024-02-15T22:08:22.056Z,11.06
2024-02-15T22:10:50.539Z,11.08
2024-02-15T22:13:19.089Z,11.14
2024-02-15T22:15:46.159Z,11.16
2024-02-15T22:18:13.908Z,11.09
2024-02-15T22:20:41.149Z,11.06
2024-02-15T22:23:07.729Z,11.10
2024-02-15T22:25:34.404Z,11.07
2024-02-15T22:28:00.942Z,10.99
2024-02-15T22:30:27.799Z,11.03
2024-02-15T22:32:56.915Z,10.98
2024-02-15T22:35:24.853Z,10.96
2024-02-15T22:37:51.465Z,10.92
2024-02-15T22:40:24.311Z,10.82
2024-02-15T22:42:50.870Z,10.85
2024-02-15T22:45:18.529Z,10.81
2024-02-15T22:47:46.427Z,10.90
2024-02-15T22:50:13.516Z,10.86
2024-02-15T22:52:40.557Z,10.85
2024-02-15T22:55:13.160Z,10.89
2024-02-15T22:57:39.831Z,10.86
2024-02-15T23:00:07.640Z,10.82
2024-02-15T23:02:36.292Z,10.81
2024-02-15T23:05:03.373Z,10.72
2024-02-15T23:07:30.230Z,10.79
2024-02-15T23:09:56.895Z,10.79
2024-02-15T23:12:23.714Z,10.83
2024-02-15T23:14:50.501Z,10.82
2024-02-15T23:17:17.071Z,10.82
2024-02-15T23:19:43.744Z,10.76
2024-02-15T23:22:11.341Z,10.76
2024-02-15T23:24:38.750Z,10.72
2024-02-15T23:27:06.761Z,10.69
2024-02-15T23:29:33.595Z,10.65
2024-02-15T23:32:00.313Z,10.69
2024-02-15T23:34:26.983Z,10.73
2024-02-15T23:37:11.889Z,10.76
2024-02-15T23:39:56.840Z,10.78
2024-02-15T23:42:23.588Z,10.73
2024-02-15T23:44:50.351Z,10.76
2024-02-15T23:47:16.960Z,10.64
2024-02-15T23:49:43.689Z,10.77
2024-02-15T23:52:10.331Z,10.80
2024-02-15T23:54:38.044Z,10.77
2024-02-15T23:57:06.530Z,10.71
2024-02-15T23:59:34.596Z,10.64
